createdAt,value
2022-12-16T00:01:18.636Z,100928.94
2022-12-16T00:03:52.037Z,100933.31
2022-12-16T00:06:20.911Z,100926.19
2022-12-16T00:08:48.819Z,100921.69
2022-12-16T00:11:16.755Z,100920.81
2022-12-16T00:13:44.688Z,100918.88
2022-12-16T00:16:14.753Z,100924.28
2022-12-16T00:18:42.849Z,100925.06
2022-12-16T00:21:12.682Z,100923.28
2022-12-16T00:23:41.863Z,100917.13
2022-12-16T00:26:09.887Z,100923.31
2022-12-16T00:28:38.142Z,100925.06
2022-12-16T00:31:06.659Z,100931.25
2022-12-16T00:33:35.020Z,100935.59
2022-12-16T00:36:03.336Z,100931.19
2022-12-16T00:38:32.681Z,100927.63
2022-12-16T00:41:00.648Z,100931.19
2022-12-16T00:43:28.556Z,100931.16
2022-12-16T00:45:56.706Z,100929.25
2022-12-16T00:48:25.578Z,100932.63
2022-12-16T00:50:54.909Z,100935.28
2022-12-16T00:53:24.719Z,100937.91
2022-12-16T00:55:54.219Z,100936.94
2022-12-16T00:58:22.786Z,100936.06
2022-12-16T01:00:52.800Z,100936.13
2022-12-16T01:03:22.984Z,100942.34
2022-12-16T01:05:50.967Z,100939.69
2022-12-16T01:08:18.865Z,100946.59
2022-12-16T01:10:53.020Z,100946.56
2022-12-16T01:13:24.344Z,100948.28
2022-12-16T01:15:52.301Z,100947.53
2022-12-16T01:18:20.481Z,100951.06
2022-12-16T01:20:48.410Z,100960.75
2022-12-16T01:23:16.305Z,100958.97
2022-12-16T01:25:44.253Z,100968.44
2022-12-16T01:28:13.496Z,100972.69
2022-12-16T01:30:41.379Z,100974.59
2022-12-16T01:33:10.804Z,100981.72
2022-12-16T01:35:55.761Z,100984.38
2022-12-16T01:38:24.152Z,100987.03
2022-12-16T01:40:52.692Z,100986.13
2022-12-16T01:43:29.787Z,100994.13
2022-12-16T01:46:00.355Z,100994.13
2022-12-16T01:48:36.709Z,100993.34
2022-12-16T01:51:08.677Z,101000.38
2022-12-16T01:53:37.413Z,101002.09
2022-12-16T01:56:05.444Z,100999.38
2022-12-16T01:58:36.097Z,100995.91
2022-12-16T02:01:04.592Z,101001.16
2022-12-16T02:03:35.252Z,100994.97
2022-12-16T02:06:04.544Z,100991.25
2022-12-16T02:08:32.497Z,100991.41
2022-12-16T02:11:16.652Z,100989.91
2022-12-16T02:13:57.952Z,100987.31
2022-12-16T02:16:28.790Z,100987.25
2022-12-16T02:19:03.423Z,100996.91
2022-12-16T02:21:47.315Z,100990.78
2022-12-16T02:24:47.279Z,100994.97
2022-12-16T02:27:40.769Z,100995.13
2022-12-16T02:30:41.996Z,100992.41
2022-12-16T02:33:19.886Z,100994.97
2022-12-16T02:35:52.110Z,100997.72
2022-12-16T02:38:26.349Z,100998.81
2022-12-16T02:40:58.687Z,101001.50
2022-12-16T02:43:37.337Z,101000.75
2022-12-16T02:46:06.732Z,100997.25
2022-12-16T02:48:36.077Z,101000.03
2022-12-16T02:51:04.249Z,100994.81
2022-12-16T02:53:32.996Z,100995.63
2022-12-16T02:56:05.497Z,100996.50
2022-12-16T02:58:38.460Z,100997.44
2022-12-16T03:01:10.672Z,101003.56
2022-12-16T03:03:46.083Z,101000.78
2022-12-16T03:06:15.849Z,100998.13
2022-12-16T03:08:46.848Z,101000.03
2022-12-16T03:11:14.969Z,101000.31
2022-12-16T03:13:46.247Z,101007.75
2022-12-16T03:16:15.723Z,101007.59
2022-12-16T03:18:46.646Z,101003.09
2022-12-16T03:21:15.605Z,100996.84
2022-12-16T03:23:47.853Z,101004.34
2022-12-16T03:26:20.490Z,101010.84
2022-12-16T03:28:52.003Z,101013.53
2022-12-16T03:31:27.044Z,101002.06
2022-12-16T03:34:00.725Z,101012.72
2022-12-16T03:36:30.887Z,101015.53
2022-12-16T03:38:58.800Z,101013.16
2022-12-16T03:41:27.216Z,101015.06
2022-12-16T03:43:55.335Z,101013.16
2022-12-16T03:46:23.272Z,101024.00
2022-12-16T03:48:52.396Z,101019.34
2022-12-16T03:51:21.855Z,101028.91
2022-12-16T03:53:49.892Z,101036.19
2022-12-16T03:56:17.995Z,101032.84
2022-12-16T03:58:47.046Z,101029.22
2022-12-16T04:01:15.642Z,101037.22
2022-12-16T04:03:43.674Z,101045.63
2022-12-16T04:06:11.743Z,101035.31
2022-12-16T04:08:41.020Z,101041.47
2022-12-16T04:11:27.506Z,101045.25
2022-12-16T04:14:12.846Z,101055.00
2022-12-16T04:16:59.453Z,101055.78
2022-12-16T04:19:49.090Z,101065.78
2022-12-16T04:22:38.005Z,101055.06
2022-12-16T04:25:10.217Z,101054.88
2022-12-16T04:27:38.116Z,101065.22
2022-12-16T04:30:23.095Z,101070.69
2022-12-16T04:33:19.689Z,101071.41
2022-12-16T04:36:04.972Z,101080.25
2022-12-16T04:38:50.336Z,101071.09
2022-12-16T04:41:37.280Z,101078.03
2022-12-16T04:44:23.176Z,101083.78
2022-12-16T04:47:08.457Z,101083.66
2022-12-16T04:49:53.747Z,101090.06
2022-12-16T04:52:39.204Z,101087.31
2022-12-16T04:55:25.638Z,101097.13
2022-12-16T04:58:13.525Z,101096.75
2022-12-16T05:00:59.446Z,101099.97
2022-12-16T05:03:44.717Z,101104.00
2022-12-16T05:06:30.274Z,101095.41
2022-12-16T05:09:15.647Z,101109.03
2022-12-16T05:12:00.849Z,101115.59
2022-12-16T05:14:47.864Z,101115.47
2022-12-16T05:17:33.740Z,101115.72
2022-12-16T05:20:18.999Z,101113.19
2022-12-16T05:23:04.311Z,101117.09
2022-12-16T05:25:49.594Z,101120.19
2022-12-16T05:28:35.166Z,101119.06
2022-12-16T05:31:22.125Z,101126.31
2022-12-16T05:34:07.147Z,101134.50
2022-12-16T05:36:52.617Z,101130.22
2022-12-16T05:39:37.615Z,101123.44
2022-12-16T05:42:22.936Z,101131.69
2022-12-16T05:45:08.141Z,101136.84
2022-12-16T05:47:55.358Z,101145.50
2022-12-16T05:50:55.633Z,101152.50
2022-12-16T05:53:41.184Z,101152.28
2022-12-16T05:56:26.356Z,101147.75
2022-12-16T05:59:11.732Z,101150.84
2022-12-16T06:01:57.310Z,101150.34
2022-12-16T06:04:44.280Z,101147.72
2022-12-16T06:07:29.603Z,101156.03
2022-12-16T06:10:15.173Z,101160.97
2022-12-16T06:13:00.570Z,101162.25
2022-12-16T06:15:45.913Z,101164.41
2022-12-16T06:18:31.240Z,101168.44
2022-12-16T06:21:17.867Z,101166.66
2022-12-16T06:24:03.272Z,101181.16
2022-12-16T06:26:49.155Z,101182.69
2022-12-16T06:29:34.212Z,101190.69
2022-12-16T06:32:19.735Z,101188.47
2022-12-16T06:35:05.084Z,101195.84
2022-12-16T06:37:53.930Z,101200.59
2022-12-16T06:40:39.374Z,101195.53
2022-12-16T06:43:24.652Z,101199.59
2022-12-16T06:46:10.063Z,101193.56
2022-12-16T06:49:00.718Z,101203.13
2022-12-16T06:51:48.749Z,101198.22
2022-12-16T06:54:35.508Z,101202.06
2022-12-16T06:57:20.976Z,101207.28
2022-12-16T07:00:06.301Z,101217.72
2022-12-16T07:02:51.715Z,101217.09
2022-12-16T07:05:36.959Z,101215.34
2022-12-16T07:08:22.219Z,101224.81
2022-12-16T07:11:16.708Z,101227.03
2022-12-16T07:14:02.535Z,101230.22
2022-12-16T07:16:47.995Z,101250.50
2022-12-16T07:19:33.139Z,101248.25
2022-12-16T07:22:18.443Z,101248.59
2022-12-16T07:25:03.783Z,101260.88
2022-12-16T07:27:50.707Z,101268.13
2022-12-16T07:30:35.990Z,101280.19
2022-12-16T07:33:21.355Z,101280.47
2022-12-16T07:36:06.845Z,101282.97
2022-12-16T07:38:52.124Z,101287.34
2022-12-16T07:41:37.404Z,101293.44
2022-12-16T07:44:24.379Z,101288.06
2022-12-16T07:47:09.826Z,101289.78
2022-12-16T07:49:55.500Z,101297.44
2022-12-16T07:52:40.949Z,101307.78
2022-12-16T07:55:26.850Z,101306.06
2022-12-16T07:58:12.299Z,101308.66
2022-12-16T08:00:58.939Z,101313.81
2022-12-16T08:03:44.227Z,101315.47
2022-12-16T08:06:29.396Z,101325.03
2022-12-16T08:09:14.604Z,101321.38
2022-12-16T08:12:00.013Z,101323.06
2022-12-16T08:14:56.927Z,101325.66
2022-12-16T08:17:43.770Z,101336.63
2022-12-16T08:20:29.717Z,101338.47
2022-12-16T08:23:11.494Z,101343.91
2022-12-16T08:26:11.424Z,101353.69
2022-12-16T08:29:02.061Z,101362.03
2022-12-16T08:31:59.073Z,101368.94
2022-12-16T08:34:46.088Z,101370.03
2022-12-16T08:37:31.477Z,101378.09
2022-12-16T08:40:34.721Z,101385.94
2022-12-16T08:43:21.470Z,101391.78
2022-12-16T08:46:07.065Z,101394.34
2022-12-16T08:48:52.223Z,101400.50
2022-12-16T08:51:44.566Z,101403.78
2022-12-16T08:54:30.001Z,101403.66
2022-12-16T08:57:15.169Z,101405.31
2022-12-16T08:59:56.953Z,101405.31
2022-12-16T09:02:42.701Z,101409.56
2022-12-16T09:05:28.216Z,101411.34
2022-12-16T09:08:18.794Z,101427.22
2022-12-16T09:11:04.362Z,101413.88
2022-12-16T09:13:49.774Z,101418.31
2022-12-16T09:16:35.182Z,101421.69
2022-12-16T09:19:20.484Z,101426.81
2022-12-16T09:22:05.965Z,101430.41
2022-12-16T09:24:52.921Z,101440.84
2022-12-16T09:27:38.317Z,101438.91
2022-12-16T09:30:24.556Z,101445.03
2022-12-16T09:33:09.858Z,101448.47
2022-12-16T09:35:55.459Z,101452.88
2022-12-16T09:38:40.610Z,101452.72
2022-12-16T09:41:44.710Z,101460.66
2022-12-16T09:44:37.768Z,101465.81
2022-12-16T09:47:32.168Z,101457.88
2022-12-16T09:50:19.260Z,101463.03
2022-12-16T09:53:09.327Z,101468.19
2022-12-16T09:55:57.755Z,101459.41
2022-12-16T09:58:48.252Z,101464.59
2022-12-16T10:01:34.245Z,101469.06
2022-12-16T10:04:20.085Z,101470.78
2022-12-16T10:07:06.766Z,101461.78
2022-12-16T10:09:59.191Z,101467.03
2022-12-16T10:12:49.025Z,101465.16
2022-12-16T10:15:45.908Z,101467.63
2022-12-16T10:18:42.732Z,101474.41
2022-12-16T10:21:30.213Z,101479.81
2022-12-16T10:24:20.728Z,101470.97
2022-12-16T10:27:10.626Z,101482.47
2022-12-16T10:29:58.498Z,101486.50
2022-12-16T10:32:49.549Z,101490.00
2022-12-16T10:35:39.521Z,101493.50
2022-12-16T10:38:29.200Z,101489.97
2022-12-16T10:41:15.005Z,101499.69
2022-12-16T10:44:03.887Z,101496.75
2022-12-16T10:46:52.793Z,101497.56
2022-12-16T10:49:40.234Z,101498.31
2022-12-16T10:52:25.820Z,101503.75
2022-12-16T10:55:18.424Z,101502.78
2022-12-16T10:58:14.182Z,101503.63
2022-12-16T11:01:03.749Z,101501.78
2022-12-16T11:03:50.655Z,101502.69
2022-12-16T11:06:42.105Z,101492.88
2022-12-16T11:09:35.025Z,101493.66
2022-12-16T11:12:40.127Z,101490.94
2022-12-16T11:15:43.409Z,101491.50
2022-12-16T11:18:30.812Z,101491.38
2022-12-16T11:21:25.294Z,101495.53
2022-12-16T11:24:24.513Z,101492.81
2022-12-16T11:27:12.908Z,101487.56
2022-12-16T11:30:12.184Z,101494.44
2022-12-16T11:32:59.615Z,101488.94
2022-12-16T11:35:46.536Z,101499.41
2022-12-16T11:38:37.745Z,101505.63
2022-12-16T11:41:25.867Z,101512.81
2022-12-16T11:44:11.559Z,101515.50
2022-12-16T11:46:57.214Z,101508.31
2022-12-16T11:49:45.984Z,101513.44
2022-12-16T11:52:45.826Z,101520.47
2022-12-16T11:58:49.834Z,101520.47
2022-12-16T12:01:44.915Z,101522.22
2022-12-16T12:04:31.448Z,101515.97
2022-12-16T12:07:44.274Z,101514.06
2022-12-16T12:10:42.116Z,101509.63
2022-12-16T12:13:46.009Z,101507.72
2022-12-16T12:16:38.674Z,101515.59
2022-12-16T12:19:29.081Z,101518.06
2022-12-16T12:22:17.695Z,101522.50
2022-12-16T12:25:08.218Z,101529.56
2022-12-16T12:27:59.135Z,101516.28
2022-12-16T12:30:59.120Z,101528.63
2022-12-16T12:33:53.706Z,101532.91
2022-12-16T12:36:48.650Z,101521.38
2022-12-16T12:39:39.994Z,101537.25
2022-12-16T12:42:33.971Z,101538.09
2022-12-16T12:45:32.633Z,101529.22
2022-12-16T12:48:19.962Z,101534.38
2022-12-16T12:51:12.605Z,101527.19
2022-12-16T12:54:04.725Z,101525.44
2022-12-16T12:56:59.737Z,101531.53
2022-12-16T12:59:49.732Z,101533.28
2022-12-16T13:02:38.291Z,101534.13
2022-12-16T13:05:24.879Z,101528.72
2022-12-16T13:08:11.844Z,101540.16
2022-12-16T13:10:57.692Z,101540.06
2022-12-16T13:13:51.999Z,101534.69
2022-12-16T13:17:23.689Z,101542.59
2022-12-16T13:20:15.708Z,101542.53
2022-12-16T13:23:03.297Z,101546.22
2022-12-16T13:25:57.131Z,101552.41
2022-12-16T13:28:45.048Z,101548.78
2022-12-16T13:31:30.486Z,101548.88
2022-12-16T13:34:19.763Z,101556.78
2022-12-16T13:37:12.073Z,101558.69
2022-12-16T13:39:57.990Z,101556.03
2022-12-16T13:43:09.676Z,101560.47
2022-12-16T13:45:58.246Z,101558.91
2022-12-16T13:48:50.058Z,101574.19
2022-12-16T13:52:11.802Z,101579.50
2022-12-16T13:55:00.813Z,101590.00
2022-12-16T13:57:49.167Z,101592.84
2022-12-16T14:00:39.815Z,101589.38
2022-12-16T14:03:30.158Z,101593.13
2022-12-16T14:06:15.868Z,101591.09
2022-12-16T14:09:01.220Z,101594.63
2022-12-16T14:11:53.530Z,101600.97
2022-12-16T14:14:42.792Z,101601.09
2022-12-16T14:17:33.333Z,101604.81
2022-12-16T14:20:22.297Z,101606.69
2022-12-16T14:23:39.355Z,101602.44
2022-12-16T14:26:20.129Z,101607.66
2022-12-16T14:29:06.592Z,101612.16
2022-12-16T14:31:55.738Z,101628.34
2022-12-16T14:34:43.660Z,101623.53
2022-12-16T14:37:37.398Z,101615.88
2022-12-16T14:40:26.509Z,101622.31
2022-12-16T14:43:13.263Z,101633.84
2022-12-16T14:46:07.311Z,101629.28
2022-12-16T14:48:53.877Z,101636.09
2022-12-16T14:51:48.056Z,101638.84
2022-12-16T14:54:36.883Z,101639.47
2022-12-16T14:57:23.180Z,101651.03
2022-12-16T15:00:19.030Z,101656.03
2022-12-16T15:03:06.258Z,101649.13
2022-12-16T15:05:53.353Z,101653.22
2022-12-16T15:08:40.449Z,101648.91
2022-12-16T15:11:29.327Z,101664.47
2022-12-16T15:14:16.692Z,101661.22
2022-12-16T15:17:03.289Z,101671.97
2022-12-16T15:19:50.933Z,101680.06
2022-12-16T15:22:36.246Z,101690.91
2022-12-16T15:25:23.855Z,101691.25
2022-12-16T15:28:13.704Z,101700.41
2022-12-16T15:30:59.761Z,101698.84
2022-12-16T15:33:46.969Z,101707.47
2022-12-16T15:36:41.868Z,101713.16
2022-12-16T15:39:37.143Z,101708.00
2022-12-16T15:42:24.108Z,101707.03
2022-12-16T15:45:10.553Z,101712.88
2022-12-16T15:47:57.309Z,101713.81
2022-12-16T15:50:44.108Z,101713.00
2022-12-16T15:53:46.874Z,101721.16
2022-12-16T15:56:36.761Z,101726.38
2022-12-16T15:59:41.967Z,101727.47
2022-12-16T16:02:34.610Z,101734.66
2022-12-16T16:05:31.849Z,101733.81
2022-12-16T16:08:17.042Z,101741.75
2022-12-16T16:11:03.107Z,101749.00
2022-12-16T16:13:48.556Z,101744.78
2022-12-16T16:16:35.483Z,101753.38
2022-12-16T16:19:21.112Z,101750.94
2022-12-16T16:22:06.542Z,101748.53
2022-12-16T16:24:51.939Z,101752.03
2022-12-16T16:27:37.371Z,101748.28
2022-12-16T16:30:23.639Z,101762.25
2022-12-16T16:33:10.635Z,101755.44
2022-12-16T16:35:56.137Z,101761.00
2022-12-16T16:38:41.436Z,101759.19
2022-12-16T16:41:32.271Z,101761.94
2022-12-16T16:44:29.117Z,101770.94
2022-12-16T16:47:15.612Z,101777.78
2022-12-16T16:50:04.968Z,101770.84
2022-12-16T16:52:50.837Z,101776.16
2022-12-16T16:55:38.700Z,101780.59
2022-12-16T16:58:25.500Z,101781.38
2022-12-16T17:01:11.009Z,101790.19
2022-12-16T17:03:56.450Z,101801.47
2022-12-16T17:06:43.288Z,101803.97
2022-12-16T17:09:28.747Z,101807.59
2022-12-16T17:12:14.124Z,101800.50
2022-12-16T17:14:55.931Z,101809.25
2022-12-16T17:17:41.276Z,101806.47
2022-12-16T17:20:28.226Z,101810.66
2022-12-16T17:23:15.094Z,101806.50
2022-12-16T17:26:00.598Z,101804.06
2022-12-16T17:28:45.998Z,101801.13
2022-12-16T17:31:31.350Z,101803.69
2022-12-16T17:34:16.567Z,101807.28
2022-12-16T17:37:04.204Z,101815.16
2022-12-16T17:39:51.175Z,101813.75
2022-12-16T17:42:37.292Z,101815.69
2022-12-16T17:45:25.102Z,101819.22
2022-12-16T17:48:10.633Z,101824.19
2022-12-16T17:50:56.102Z,101823.38
2022-12-16T17:53:41.438Z,101832.41
2022-12-16T17:56:28.490Z,101834.91
2022-12-16T17:59:13.707Z,101836.22
2022-12-16T18:01:58.919Z,101844.31
2022-12-16T18:04:44.336Z,101842.44
2022-12-16T18:07:29.390Z,101845.13
2022-12-16T18:10:14.824Z,101855.84
2022-12-16T18:13:01.640Z,101860.47
2022-12-16T18:15:47.059Z,101855.25
2022-12-16T18:18:32.757Z,101868.34
2022-12-16T18:21:27.735Z,101862.94
2022-12-16T18:24:13.136Z,101880.38
2022-12-16T18:26:58.526Z,101875.09
2022-12-16T18:29:45.712Z,101875.44
2022-12-16T18:32:35.023Z,101875.81
2022-12-16T18:35:32.307Z,101877.84
2022-12-16T18:38:17.907Z,101876.53
2022-12-16T18:41:03.260Z,101884.84
2022-12-16T18:43:48.654Z,101882.44
2022-12-16T18:46:35.664Z,101893.13
2022-12-16T18:49:21.182Z,101881.63
2022-12-16T18:52:06.642Z,101892.91
2022-12-16T18:54:52.036Z,101904.47
2022-12-16T18:57:39.830Z,101899.25
2022-12-16T19:00:27.120Z,101901.06
2022-12-16T19:03:13.857Z,101897.53
2022-12-16T19:05:59.136Z,101904.72
2022-12-16T19:08:44.515Z,101911.84
2022-12-16T19:11:29.909Z,101914.66
2022-12-16T19:14:15.786Z,101911.28
2022-12-16T19:17:01.017Z,101915.44
2022-12-16T19:19:47.617Z,101913.25
2022-12-16T19:22:33.207Z,101929.00
2022-12-16T19:25:18.621Z,101917.63
2022-12-16T19:28:04.148Z,101918.69
2022-12-16T19:30:49.414Z,101910.00
2022-12-16T19:33:46.368Z,101919.66
2022-12-16T19:36:32.893Z,101919.44
2022-12-16T19:39:18.301Z,101923.03
2022-12-16T19:42:03.675Z,101935.03
2022-12-16T19:44:49.037Z,101938.44
2022-12-16T19:47:34.458Z,101943.03
2022-12-16T19:50:19.732Z,101941.56
2022-12-16T19:53:06.787Z,101941.63
2022-12-16T19:55:52.173Z,101949.41
2022-12-16T19:58:38.842Z,101944.88
2022-12-16T20:04:29.724Z,101955.28
2022-12-16T20:07:17.812Z,101953.75
2022-12-16T20:10:08.520Z,101951.91
2022-12-16T20:12:56.181Z,101955.13
2022-12-16T20:15:41.633Z,101949.72
2022-12-16T20:18:26.903Z,101952.31
2022-12-16T20:21:12.413Z,101957.75
2022-12-16T20:23:57.838Z,101964.06
2022-12-16T20:26:44.776Z,101966.69
2022-12-16T20:29:30.362Z,101973.03
2022-12-16T20:32:15.706Z,101973.09
2022-12-16T20:35:01.073Z,101977.53
2022-12-16T20:37:46.456Z,101986.31
2022-12-16T20:40:31.939Z,101980.25
2022-12-16T20:43:18.936Z,101983.78
2022-12-16T20:46:04.245Z,101988.16
2022-12-16T20:48:49.551Z,101988.19
2022-12-16T20:51:34.937Z,101994.38
2022-12-16T20:54:20.315Z,102004.91
2022-12-16T20:57:08.292Z,102011.06
2022-12-16T20:59:59.149Z,102012.94
2022-12-16T21:02:44.467Z,102003.28
2022-12-16T21:05:29.735Z,102009.41
2022-12-16T21:08:15.036Z,102007.56
2022-12-16T21:11:00.453Z,102014.47
2022-12-16T21:13:46.311Z,102016.94
2022-12-16T21:14:28.641Z,101945.38
2022-12-16T21:16:33.500Z,102020.34
2022-12-16T21:19:18.796Z,102013.16
2022-12-16T21:22:04.181Z,102028.41
2022-12-16T21:24:49.611Z,102020.63
2022-12-16T21:27:34.860Z,102022.47
2022-12-16T21:30:20.211Z,102026.03
2022-12-16T21:33:08.501Z,102027.59
2022-12-16T21:35:54.002Z,102035.44
2022-12-16T21:38:41.181Z,102036.25
2022-12-16T21:41:26.589Z,102038.97
2022-12-16T21:44:12.030Z,102043.41
2022-12-16T21:46:58.325Z,102046.22
2022-12-16T21:49:45.287Z,102041.84
2022-12-16T21:52:32.968Z,102045.31
2022-12-16T21:55:18.445Z,102041.88
2022-12-16T21:58:09.414Z,102037.50
2022-12-16T22:00:58.763Z,102037.34
2022-12-16T22:03:45.813Z,102038.28
2022-12-16T22:06:32.818Z,102044.41
2022-12-16T22:09:18.244Z,102050.72
2022-12-16T22:12:03.684Z,102051.00
2022-12-16T22:14:57.465Z,102048.50
2022-12-16T22:17:42.891Z,102042.34
2022-12-16T22:20:29.171Z,102047.72
2022-12-16T22:23:16.109Z,102050.38
2022-12-16T22:26:01.492Z,102045.19
2022-12-16T22:28:47.060Z,102045.16
2022-12-16T22:31:32.456Z,102057.63
2022-12-16T22:34:19.249Z,102058.47
2022-12-16T22:37:04.631Z,102064.66
2022-12-16T22:39:51.609Z,102064.63
2022-12-16T22:42:37.015Z,102066.34
2022-12-16T22:45:22.672Z,102063.78
2022-12-16T22:48:08.107Z,102073.41
2022-12-16T22:50:53.619Z,102075.09
2022-12-16T22:53:41.942Z,102082.16
2022-12-16T22:56:28.964Z,102075.97
2022-12-16T22:59:14.612Z,102074.28
2022-12-16T23:02:00.047Z,102064.66
2022-12-16T23:04:45.387Z,102073.41
2022-12-16T23:07:30.552Z,102063.53
2022-12-16T23:10:15.968Z,102074.94
2022-12-16T23:13:02.954Z,102070.75
2022-12-16T23:15:48.055Z,102067.28
2022-12-16T23:18:33.326Z,102071.75
2022-12-16T23:21:18.506Z,102075.28
2022-12-16T23:24:03.901Z,102085.84
2022-12-16T23:26:49.459Z,102089.34
2022-12-16T23:29:36.389Z,102083.06
2022-12-16T23:32:21.580Z,102086.63
2022-12-16T23:35:06.827Z,102089.34
2022-12-16T23:37:52.328Z,102077.97
2022-12-16T23:40:37.768Z,102085.97
2022-12-16T23:43:23.133Z,102080.69
2022-12-16T23:46:10.098Z,102083.31
2022-12-16T23:48:55.128Z,102095.66
2022-12-16T23:51:40.885Z,102084.16
2022-12-16T23:54:26.373Z,102097.41
2022-12-16T23:57:11.717Z,102099.22
2022-12-16T23:59:57.112Z,102107.13
